Norse, Texas
Current Conditions -  °F | °C
As of 2:51 PM on Sunday 23 Nov 2014 (Local Time) from KACT Reporting Station
Clear Clear  
Wind Chill: 78°   Ceiling: Unl
Heat Index: 78°   Visibility: 10mi
Dew Point: 40°   Wind: 17mph
Humidity: 25%   Direction: 260°W
Pressure: 29.45"   Gusts: 29mph
Location:  31.7854°N, 97.5786°W
Report Text: KACT 232051Z 26015G25KT 10SM CLR 26/04 A2945 RMK AO2 SLP968 T02560044 56020
Loading
Personal Weather Stations






























Interactive Weather Map New forecast layout! Learn more

10-Day Weather Forecast

Advertisements
Track Severe Weather on mobile